Time;durP1;ratioP1;P1;durP2;ratioP2;P2;SDS_P1;SDS_P2;PMS_P1;PMS_P2;Temp;Humidity;BMP_temperature;BMP_pressure;BME280_temperature;BME280_humidity;BME280_pressure;Samples;Min_cycle;Max_cycle;Signal;HPM_P1;HPM_P2
2023/06/20 01:02:37;;;;;;;10.68;8.32;;;20.60;1.00;;;;;;5435044;23;20063;-82
2023/06/20 01:05:04;;;;;;;9.90;7.90;;;20.60;1.00;;;;;;4880309;29;40307;-82
2023/06/20 01:07:41;;;;;;;10.63;7.70;;;20.50;1.00;;;;;;4911230;28;47924;-82
2023/06/20 01:10:37;;;;;;;13.18;8.27;;;20.50;1.00;;;;;;4891217;29;37210;-82
2023/06/20 01:13:20;;;;;;;12.13;8.18;;;20.50;1.00;;;;;;4906241;29;36249;-83
2023/06/20 01:16:26;;;;;;;8.60;6.80;;;20.50;1.00;;;;;;4906911;29;37989;-83
2023/06/20 01:19:54;;;;;;;11.10;7.88;;;20.50;1.00;;;;;;4890292;29;48137;-82
2023/06/20 01:22:57;;;;;;;9.80;8.15;;;20.50;1.00;;;;;;4813953;29;47296;-81
2023/06/20 01:25:52;;;;;;;8.52;7.50;;;20.40;1.00;;;;;;4836204;29;36020;-82
2023/06/20 01:28:40;;;;;;;11.40;7.85;;;20.40;1.00;;;;;;4900054;29;37469;-82
2023/06/20 01:31:16;;;;;;;11.10;8.35;;;20.40;1.00;;;;;;4896383;29;37713;-83
2023/06/20 01:33:50;;;;;;;11.57;8.38;;;20.40;1.00;;;;;;4904679;29;37253;-83
2023/06/20 01:36:19;;;;;;;10.35;7.20;;;20.40;1.00;;;;;;4890166;29;36429;-83
2023/06/20 01:38:48;;;;;;;9.80;7.30;;;20.40;1.00;;;;;;4889297;29;39430;-82
2023/06/20 01:41:18;;;;;;;9.88;7.53;;;20.40;1.00;;;;;;4899690;28;37626;-83
2023/06/20 01:43:46;;;;;;;12.75;7.30;;;20.40;1.00;;;;;;4905738;29;38001;-81
2023/06/20 01:46:14;;;;;;;8.23;6.82;;;20.30;1.00;;;;;;4888765;29;36450;-83
2023/06/20 01:48:41;;;;;;;9.65;7.65;;;20.30;1.00;;;;;;4892689;29;39462;-83
2023/06/20 01:51:07;;;;;;;10.00;7.88;;;20.40;1.00;;;;;;4893533;29;37318;-83
2023/06/20 01:53:35;;;;;;;9.55;7.32;;;20.40;1.00;;;;;;4907793;29;39093;-83
2023/06/20 01:56:03;;;;;;;10.30;7.35;;;20.40;1.00;;;;;;4894660;29;36120;-84
2023/06/20 01:58:31;;;;;;;8.57;7.03;;;20.40;1.00;;;;;;4896063;29;38619;-82
2023/06/20 02:00:58;;;;;;;11.10;7.95;;;20.40;1.00;;;;;;4907842;29;37326;-83
2023/06/20 02:03:28;;;;;;;9.30;8.00;;;20.40;1.00;;;;;;4894203;29;38409;-83
2023/06/20 02:05:56;;;;;;;10.07;7.40;;;20.40;1.00;;;;;;4893543;29;36475;-82
2023/06/20 02:08:26;;;;;;;10.82;6.88;;;20.40;1.00;;;;;;4910951;29;39236;-82
2023/06/20 02:10:53;;;;;;;9.88;7.55;;;20.40;1.00;;;;;;4904372;29;38466;-83
2023/06/20 02:13:23;;;;;;;9.25;7.47;;;20.40;1.00;;;;;;4909713;29;38797;-84
2023/06/20 02:15:56;;;;;;;10.57;8.13;;;20.40;1.00;;;;;;4901214;29;36740;-82
2023/06/20 02:18:22;;;;;;;10.77;7.43;;;20.40;1.00;;;;;;4893565;29;38043;-81
2023/06/20 02:20:52;;;;;;;8.98;7.22;;;20.40;1.00;;;;;;4899141;29;37734;-82
2023/06/20 02:23:29;;;;;;;8.73;6.80;;;20.40;1.00;;;;;;4893466;29;38232;-83
2023/06/20 02:26:02;;;;;;;8.23;6.72;;;20.40;1.00;;;;;;4903860;29;36956;-83
2023/06/20 02:28:29;;;;;;;10.65;7.22;;;20.30;1.00;;;;;;4892925;29;47588;-83
2023/06/20 02:30:56;;;;;;;9.73;8.20;;;20.30;1.00;;;;;;4894169;29;38675;-82
2023/06/20 02:33:24;;;;;;;11.57;8.15;;;20.30;1.00;;;;;;4890641;29;38241;-84
2023/06/20 02:35:51;;;;;;;7.82;7.03;;;20.30;1.00;;;;;;4893006;29;36378;-83
2023/06/20 02:38:17;;;;;;;10.27;7.85;;;20.30;1.00;;;;;;4893772;29;37751;-83
2023/06/20 02:40:43;;;;;;;9.32;6.50;;;20.30;1.00;;;;;;4893201;29;37553;-85
2023/06/20 02:43:09;;;;;;;11.32;7.82;;;20.30;1.00;;;;;;4892868;29;37935;-83
2023/06/20 02:45:36;;;;;;;9.93;7.45;;;20.30;1.00;;;;;;4892856;29;37223;-84
2023/06/20 02:48:20;;;;;;;9.73;7.65;;;20.30;1.00;;;;;;4892715;29;37940;-83
2023/06/20 02:51:07;;;;;;;10.98;7.80;;;20.30;1.00;;;;;;4909195;29;38663;-82
2023/06/20 02:53:39;;;;;;;8.88;7.78;;;20.20;1.00;;;;;;4890637;29;47545;-83
2023/06/20 02:56:12;;;;;;;;;;;20.20;1.00;;;;;;4892410;29;37732;-84
2023/06/20 02:58:40;;;;;;;;;;;20.30;1.00;;;;;;4892580;29;39113;-83
2023/06/20 03:01:07;;;;;;;13.00;8.23;;;20.20;1.00;;;;;;4903606;29;39588;-83
2023/06/20 03:03:36;;;;;;;10.13;7.97;;;20.10;1.00;;;;;;4894365;29;36880;-84
2023/06/20 03:06:06;;;;;;;9.77;6.97;;;20.10;1.00;;;;;;4890520;29;37677;-83
2023/06/20 03:08:33;;;;;;;11.88;8.18;;;20.10;1.00;;;;;;4910986;29;38511;-84
2023/06/20 03:11:01;;;;;;;10.73;8.05;;;20.10;1.00;;;;;;4890247;29;37428;-83
2023/06/20 03:13:27;;;;;;;9.65;7.38;;;20.10;1.00;;;;;;4894005;29;39438;-84
2023/06/20 03:15:55;;;;;;;8.80;7.68;;;20.10;1.00;;;;;;4892508;29;36469;-83
2023/06/20 03:18:21;;;;;;;12.63;7.88;;;20.10;1.00;;;;;;4892431;29;38588;-84
2023/06/20 03:20:48;;;;;;;11.55;7.78;;;20.10;1.00;;;;;;4896381;29;37550;-83
2023/06/20 03:23:15;;;;;;;9.85;8.20;;;20.10;1.00;;;;;;4914295;29;38033;-84
2023/06/20 03:25:41;;;;;;;9.15;7.57;;;20.10;1.00;;;;;;4910663;29;38731;-83
2023/06/20 03:28:07;;;;;;;8.52;7.72;;;20.10;1.00;;;;;;4893997;29;40764;-84
2023/06/20 03:30:34;;;;;;;11.05;7.85;;;20.10;1.00;;;;;;4896601;29;37263;-83
2023/06/20 03:33:00;;;;;;;12.77;7.75;;;20.10;1.00;;;;;;4896474;29;37344;-83
2023/06/20 03:35:26;;;;;;;14.05;9.18;;;20.00;1.00;;;;;;4903696;29;35982;-83
2023/06/20 03:37:54;;;;;;;10.55;7.60;;;20.00;1.00;;;;;;4894082;29;20149;-82
2023/06/20 03:40:20;;;;;;;10.23;7.78;;;20.10;1.00;;;;;;4893919;29;38856;-83
2023/06/20 03:42:49;;;;;;;9.98;7.15;;;20.10;1.00;;;;;;4893206;29;37000;-83
2023/06/20 03:45:15;;;;;;;14.35;7.85;;;20.10;1.00;;;;;;4891827;29;36439;-83
2023/06/20 03:47:41;;;;;;;10.38;7.78;;;20.10;1.00;;;;;;4911974;29;40054;-83
2023/06/20 03:50:07;;;;;;;9.85;8.27;;;20.10;1.00;;;;;;4896439;29;38027;-84
2023/06/20 03:52:34;;;;;;;10.57;7.13;;;20.10;1.00;;;;;;4900531;29;37038;-83
2023/06/20 03:55:00;;;;;;;8.95;7.50;;;20.10;1.00;;;;;;4897144;29;36970;-83
2023/06/20 03:57:26;;;;;;;10.27;8.20;;;20.00;1.00;;;;;;4895184;29;37788;-84
2023/06/20 03:59:52;;;;;;;9.73;7.82;;;20.00;1.00;;;;;;4894541;29;37257;-83
2023/06/20 04:02:18;;;;;;;10.90;7.57;;;19.90;1.00;;;;;;4888941;29;38313;-83
2023/06/20 04:04:49;;;;;;;12.80;7.93;;;19.90;1.00;;;;;;4905820;29;37282;-83
2023/06/20 04:07:20;;;;;;;9.80;7.28;;;19.90;1.00;;;;;;4896088;29;38943;-82
2023/06/20 04:09:49;;;;;;;9.98;7.28;;;19.90;1.00;;;;;;4895664;29;37533;-83
2023/06/20 04:12:15;;;;;;;8.68;7.45;;;19.90;16.10;;;;;;4915257;29;38608;-83
2023/06/20 04:14:41;;;;;;;9.32;7.18;;;19.90;8.80;;;;;;4897165;29;36383;-83
2023/06/20 04:17:07;;;;;;;8.75;7.65;;;19.90;14.60;;;;;;4903708;29;37601;-82
2023/06/20 04:19:34;;;;;;;8.43;6.93;;;19.90;13.70;;;;;;4890928;29;39458;-83
2023/06/20 04:22:00;;;;;;;9.18;7.70;;;19.90;3.00;;;;;;4895583;29;37000;-83
2023/06/20 04:24:26;;;;;;;11.88;7.45;;;19.90;17.30;;;;;;4893014;29;36769;-82
2023/06/20 04:26:54;;;;;;;10.60;7.82;;;19.90;1.00;;;;;;4894537;29;37738;-83
2023/06/20 04:29:20;;;;;;;9.23;7.53;;;19.90;9.50;;;;;;4910103;29;39345;-82
2023/06/20 04:31:49;;;;;;;7.63;6.82;;;19.90;18.20;;;;;;4908781;29;35954;-82
2023/06/20 04:34:15;;;;;;;9.38;7.18;;;19.90;1.00;;;;;;4894984;29;36123;-82
2023/06/20 04:36:41;;;;;;;9.15;7.40;;;19.90;19.00;;;;;;4893343;29;38018;-83
2023/06/20 04:39:07;;;;;;;9.02;8.05;;;19.90;14.10;;;;;;4896936;29;37406;-83
2023/06/20 04:41:33;;;;;;;10.85;7.30;;;19.90;25.00;;;;;;4905665;29;36973;-83
2023/06/20 04:44:00;;;;;;;11.68;8.98;;;19.90;23.20;;;;;;4910509;29;37963;-83
2023/06/20 04:46:26;;;;;;;9.82;7.63;;;19.90;12.10;;;;;;4888017;29;39600;-83
2023/06/20 04:48:53;;;;;;;9.30;7.88;;;20.00;22.70;;;;;;4889879;29;38240;-81
2023/06/20 04:51:19;;;;;;;8.80;7.82;;;20.00;19.80;;;;;;4901230;29;37524;-82
2023/06/20 04:53:48;;;;;;;10.25;7.80;;;20.00;16.80;;;;;;4887432;29;37506;-83
2023/06/20 04:56:15;;;;;;;11.25;8.32;;;20.00;19.90;;;;;;4902307;29;38529;-83
2023/06/20 04:58:45;;;;;;;9.38;7.78;;;20.00;16.60;;;;;;4887410;29;37313;-82
2023/06/20 05:01:11;;;;;;;8.98;7.80;;;20.10;7.10;;;;;;4888112;29;38223;-83
2023/06/20 05:03:37;;;;;;;11.82;8.32;;;20.10;24.00;;;;;;4882885;29;36277;-83
2023/06/20 05:06:03;;;;;;;11.20;8.05;;;20.10;5.90;;;;;;4898325;29;37341;-83
2023/06/20 05:08:29;;;;;;;9.73;7.78;;;20.10;5.10;;;;;;4884804;29;38052;-82
2023/06/20 05:10:55;;;;;;;10.10;8.20;;;20.20;1.70;;;;;;4886604;29;37255;-84
2023/06/20 05:13:21;;;;;;;8.70;7.75;;;20.20;23.60;;;;;;4904143;29;37136;-83
2023/06/20 05:15:47;;;;;;;11.02;7.68;;;20.20;25.80;;;;;;4902185;29;38717;-83
2023/06/20 05:18:14;;;;;;;9.77;7.78;;;20.20;23.90;;;;;;4886496;29;37123;-83
2023/06/20 05:20:40;;;;;;;11.13;8.07;;;20.20;28.20;;;;;;4888218;29;36990;-82
2023/06/20 05:23:06;;;;;;;9.07;7.55;;;20.30;19.30;;;;;;4907919;29;36924;-83
2023/06/20 05:25:32;;;;;;;9.15;8.20;;;20.30;23.30;;;;;;4904895;29;38154;-83
2023/06/20 05:27:58;;;;;;;8.75;7.70;;;20.30;10.50;;;;;;4887860;29;39809;-84
2023/06/20 05:30:25;;;;;;;10.85;8.52;;;20.40;12.50;;;;;;4901652;29;37765;-84
2023/06/20 05:32:51;;;;;;;11.57;8.38;;;20.50;3.10;;;;;;4886097;29;36223;-84
2023/06/20 05:35:18;;;;;;;9.20;7.68;;;20.70;1.00;;;;;;4886323;29;39787;-84
2023/06/20 05:37:49;;;;;;;12.63;8.52;;;20.90;10.80;;;;;;4906324;29;38654;-85
2023/06/20 05:40:15;;;;;;;9.15;8.25;;;21.00;1.00;;;;;;4886197;29;37015;-83
2023/06/20 05:42:41;;;;;;;8.82;7.47;;;21.10;1.00;;;;;;4886392;29;36131;-84
2023/06/20 05:45:08;;;;;;;10.23;8.05;;;21.20;8.50;;;;;;4886579;29;38056;-83
2023/06/20 05:47:35;;;;;;;11.23;8.07;;;21.20;1.00;;;;;;4884911;29;37835;-82
2023/06/20 05:50:01;;;;;;;10.95;8.20;;;21.20;1.00;;;;;;4905985;29;39313;-83
2023/06/20 05:52:27;;;;;;;12.60;8.25;;;21.20;1.00;;;;;;4910515;29;37641;-83
2023/06/20 05:54:54;;;;;;;12.85;9.10;;;21.20;1.00;;;;;;4890129;29;37676;-84
2023/06/20 05:57:21;;;;;;;11.45;9.60;;;21.10;1.00;;;;;;4889970;29;38828;-84
2023/06/20 05:59:47;;;;;;;10.85;8.55;;;21.10;1.00;;;;;;4903116;29;36709;-86
2023/06/20 06:02:13;;;;;;;14.75;9.38;;;21.00;1.00;;;;;;4903170;29;34651;-86
2023/06/20 06:04:43;;;;;;;10.90;9.55;;;21.00;21.30;;;;;;4899113;29;39475;-86
2023/06/20 06:07:11;;;;;;;13.52;9.38;;;20.90;22.70;;;;;;4894291;29;38600;-88
2023/06/20 06:09:37;;;;;;;9.80;8.70;;;21.00;2.20;;;;;;4898411;29;36669;-87
2023/06/20 06:12:03;;;;;;;12.43;9.60;;;21.20;20.30;;;;;;4891476;29;35977;-86
2023/06/20 06:14:32;;;;;;;15.07;11.20;;;21.20;1.00;;;;;;4890100;29;37908;-85
2023/06/20 06:16:58;;;;;;;13.48;9.50;;;21.30;1.00;;;;;;4896072;29;38830;-85
2023/06/20 06:19:24;;;;;;;16.48;10.68;;;21.30;1.00;;;;;;4910345;29;37623;-85
2023/06/20 06:21:50;;;;;;;11.77;9.50;;;21.30;16.40;;;;;;4894427;29;36732;-85
2023/06/20 06:24:18;;;;;;;13.90;10.60;;;21.40;1.00;;;;;;4892333;29;37137;-84
2023/06/20 06:26:44;;;;;;;14.18;10.65;;;21.50;1.00;;;;;;4894090;29;38755;-85
2023/06/20 06:29:10;;;;;;;16.85;9.85;;;21.50;1.00;;;;;;4893438;29;37026;-85
2023/06/20 06:31:37;;;;;;;13.27;10.73;;;21.50;1.00;;;;;;4890785;29;36264;-86
2023/06/20 06:34:04;;;;;;;16.02;10.90;;;21.50;1.00;;;;;;4908394;29;38774;-87
2023/06/20 06:36:32;;;;;;;14.10;11.00;;;21.50;1.00;;;;;;4891961;29;38999;-87
2023/06/20 06:39:00;;;;;;;12.88;11.50;;;21.50;1.00;;;;;;4893489;29;38481;-87
2023/06/20 06:41:27;;;;;;;17.17;11.40;;;21.50;6.00;;;;;;4897307;29;36806;-87
2023/06/20 06:43:54;;;;;;;12.02;10.73;;;21.60;1.00;;;;;;4895546;29;39147;-86
2023/06/20 06:46:20;;;;;;;12.18;10.65;;;21.80;3.10;;;;;;4911919;29;38122;-88
2023/06/20 06:48:47;;;;;;;12.18;10.98;;;21.90;1.00;;;;;;4898723;29;37417;-88
2023/06/20 06:51:15;;;;;;;15.00;11.93;;;21.90;1.00;;;;;;4895247;29;36596;-86
2023/06/20 06:53:41;;;;;;;16.25;11.65;;;21.90;1.00;;;;;;4905040;29;39465;-90
2023/06/20 06:56:09;;;;;;;13.25;11.85;;;21.90;1.00;;;;;;4895581;29;39338;-90
2023/06/20 06:58:35;;;;;;;15.25;11.05;;;21.90;1.00;;;;;;4906730;29;40701;-86
2023/06/20 07:01:02;;;;;;;15.50;11.30;;;22.10;1.00;;;;;;4896901;29;36313;-85
2023/06/20 07:03:31;;;;;;;16.67;12.60;;;22.40;1.00;;;;;;4895577;29;39154;-86
2023/06/20 07:05:57;;;;;;;12.73;10.98;;;22.80;1.00;;;;;;4896663;29;38292;-86
2023/06/20 07:08:25;;;;;;;12.15;10.93;;;23.10;1.00;;;;;;4919641;29;36818;-86
2023/06/20 07:10:51;;;;;;;15.80;11.63;;;23.30;1.00;;;;;;4913013;29;38134;-87
2023/06/20 07:13:17;;;;;;;18.08;11.63;;;23.30;1.00;;;;;;4908265;29;39699;-86
2023/06/20 07:15:43;;;;;;;14.15;12.35;;;23.30;1.00;;;;;;4910582;29;37626;-85
2023/06/20 07:18:09;;;;;;;16.77;11.20;;;23.60;1.00;;;;;;4909143;29;36957;-85
2023/06/20 07:20:35;;;;;;;12.43;10.82;;;23.90;1.00;;;;;;4892468;29;36879;-85
2023/06/20 07:23:02;;;;;;;14.10;11.70;;;24.00;1.00;;;;;;4910410;29;39448;-85
2023/06/20 07:25:28;;;;;;;15.75;12.50;;;24.00;1.00;;;;;;4895428;29;38691;-85
2023/06/20 07:27:54;;;;;;;15.57;11.15;;;23.90;1.00;;;;;;4894774;29;37360;-84
2023/06/20 07:30:20;;;;;;;13.63;11.63;;;23.90;1.00;;;;;;4893079;29;37213;-86
2023/06/20 07:32:48;;;;;;;13.40;11.60;;;24.00;1.00;;;;;;4911396;29;40050;-85
2023/06/20 07:35:14;;;;;;;15.07;12.18;;;24.00;1.00;;;;;;4895079;29;37357;-84
2023/06/20 07:37:41;;;;;;;14.32;11.55;;;24.00;1.00;;;;;;4894816;29;37067;-85
2023/06/20 07:40:07;;;;;;;12.90;11.45;;;24.00;1.00;;;;;;4892393;29;36387;-85
2023/06/20 07:42:34;;;;;;;15.95;11.98;;;24.30;1.00;;;;;;4898005;29;39151;-84
2023/06/20 07:45:00;;;;;;;13.88;11.88;;;24.30;1.00;;;;;;4915015;29;38061;-84
2023/06/20 07:47:26;;;;;;;11.93;10.70;;;24.30;1.00;;;;;;4897406;29;38111;-85
2023/06/20 07:49:52;;;;;;;14.35;12.35;;;24.20;1.00;;;;;;4896306;29;36508;-85
2023/06/20 07:52:18;;;;;;;16.25;11.95;;;24.40;1.00;;;;;;4895718;29;37816;-86
2023/06/20 07:54:44;;;;;;;13.85;10.55;;;24.50;1.00;;;;;;4896729;29;37553;-85
2023/06/20 07:57:10;;;;;;;12.48;10.40;;;24.60;1.00;;;;;;4912363;29;39180;-85
2023/06/20 07:59:36;;;;;;;13.10;10.65;;;25.00;1.00;;;;;;4898191;29;36778;-84
2023/06/20 08:02:02;;;;;;;16.48;11.88;;;25.40;1.00;;;;;;4896852;29;38743;-84
2023/06/20 08:04:29;;;;;;;11.55;10.30;;;25.30;1.00;;;;;;4897799;29;37231;-85
2023/06/20 08:06:55;;;;;;;11.73;10.55;;;25.60;1.00;;;;;;4917556;29;37650;-85
2023/06/20 08:09:21;;;;;;;10.60;9.52;;;25.90;99.90;;;;;;4913525;29;37335;-85
2023/06/20 08:11:47;;;;;;;15.48;11.10;;;26.10;1.00;;;;;;4908840;29;37691;-88
2023/06/20 08:14:13;;;;;;;9.93;8.88;;;26.40;1.00;;;;;;4907923;29;38696;-84
2023/06/20 08:16:39;;;;;;;12.18;9.70;;;26.60;17.10;;;;;;4894421;29;37129;-83
2023/06/20 08:19:05;;;;;;;15.00;10.93;;;26.70;99.90;;;;;;4891070;29;37565;-85
2023/06/20 08:21:31;;;;;;;12.85;10.32;;;26.40;99.90;;;;;;4889953;29;37671;-83
2023/06/20 08:23:57;;;;;;;11.90;10.65;;;26.50;1.00;;;;;;4889105;29;37164;-84
2023/06/20 08:26:24;;;;;;;13.93;12.45;;;26.40;99.90;;;;;;4894856;29;37172;-85
2023/06/20 08:28:50;;;;;;;11.68;9.95;;;26.50;1.00;;;;;;4895861;29;37673;-87
2023/06/20 08:31:16;;;;;;;10.95;9.60;;;26.40;99.90;;;;;;4895742;29;37702;-85
2023/06/20 08:33:42;;;;;;;12.05;10.70;;;26.60;1.00;;;;;;4901479;29;37330;-84
2023/06/20 08:36:11;;;;;;;10.90;9.68;;;26.70;1.00;;;;;;4896118;29;38436;-85
2023/06/20 08:38:38;;;;;;;11.68;10.45;;;26.50;1.00;;;;;;4906435;29;37241;-86
2023/06/20 08:41:09;;;;;;;11.77;10.63;;;26.40;1.00;;;;;;4898303;29;38129;-85
2023/06/20 08:43:35;;;;;;;11.15;9.15;;;26.20;99.90;;;;;;4897128;29;37449;-86
2023/06/20 08:46:01;;;;;;;10.38;9.32;;;26.60;90.20;;;;;;4912257;29;38514;-83
2023/06/20 08:48:27;;;;;;;12.80;9.13;;;26.70;1.00;;;;;;4895329;29;37078;-82
2023/06/20 08:50:54;;;;;;;11.93;9.82;;;26.70;99.90;;;;;;4910830;29;38925;-84
2023/06/20 08:53:20;;;;;;;11.45;10.25;;;26.80;1.00;;;;;;4888590;29;39353;-82
2023/06/20 08:55:48;;;;;;;11.38;9.70;;;26.50;99.30;;;;;;4891810;29;38174;-83
2023/06/20 08:58:14;;;;;;;14.77;11.00;;;26.60;1.00;;;;;;4891152;29;36890;-82
2023/06/20 09:00:40;;;;;;;17.30;10.05;;;26.80;99.90;;;;;;4891843;29;38186;-84
2023/06/20 09:03:06;;;;;;;8.85;7.97;;;27.00;1.00;;;;;;4889885;29;39039;-84
2023/06/20 09:05:39;;;;;;;11.20;8.88;;;26.70;1.00;;;;;;4896358;29;37396;-81
2023/06/20 09:08:06;;;;;;;9.30;8.18;;;26.40;99.90;;;;;;4879981;29;36289;-83
2023/06/20 09:10:33;;;;;;;14.23;10.27;;;26.80;14.40;;;;;;4897431;29;37810;-86
2023/06/20 09:12:59;;;;;;;11.18;9.88;;;26.60;26.50;;;;;;4878792;29;37659;-86
2023/06/20 09:15:26;;;;;;;10.93;9.85;;;26.20;1.00;;;;;;4892962;29;36592;-81
2023/06/20 09:17:55;;;;;;;10.65;7.93;;;26.40;50.50;;;;;;4895107;29;37719;-84
2023/06/20 09:20:24;;;;;;;8.02;7.22;;;26.80;1.00;;;;;;4878232;29;38919;-80
2023/06/20 09:22:51;;;;;;;6.57;5.97;;;27.30;1.00;;;;;;4886701;29;39238;-80
2023/06/20 09:25:39;;;;;;;7.35;5.82;;;27.70;99.90;;;;;;4884759;29;36852;-79
2023/06/20 09:28:14;;;;;;;18.85;8.55;;;28.20;1.00;;;;;;4889878;29;36122;-82
2023/06/20 09:30:44;;;;;;;8.25;7.25;;;27.70;1.00;;;;;;4876223;29;37863;-82
2023/06/20 09:33:13;;;;;;;8.02;6.35;;;27.90;27.10;;;;;;4876960;29;37691;-81
2023/06/20 09:36:16;;;;;;;6.95;6.18;;;27.90;1.00;;;;;;4895716;29;37910;-80
2023/06/20 09:38:43;;;;;;;8.75;5.47;;;28.00;1.00;;;;;;4878983;29;47271;-84
2023/06/20 09:41:15;;;;;;;7.82;5.95;;;28.30;1.00;;;;;;4902351;29;39524;-85
2023/06/20 09:43:41;;;;;;;7.75;6.22;;;28.40;99.90;;;;;;4868627;29;37503;-87
2023/06/20 09:46:07;;;;;;;8.18;5.90;;;28.40;91.60;;;;;;4901327;29;38226;-88
2023/06/20 09:48:35;;;;;;;6.95;6.25;;;28.50;1.00;;;;;;4875983;29;36323;-82
2023/06/20 09:51:02;;;;;;;6.00;5.13;;;28.70;46.80;;;;;;4871135;29;37934;-80
2023/06/20 09:53:46;;;;;;;8.77;5.78;;;28.70;99.90;;;;;;4867902;29;48000;-80
2023/06/20 09:56:14;;;;;;;8.73;6.15;;;28.80;1.00;;;;;;4880394;29;36868;-80
2023/06/20 09:58:45;;;;;;;10.43;6.82;;;28.70;1.00;;;;;;4871851;29;37559;-81
2023/06/20 10:01:16;;;;;;;10.52;6.47;;;28.60;1.00;;;;;;4868635;29;37549;-83
2023/06/20 10:03:42;;;;;;;8.15;5.78;;;28.50;1.00;;;;;;4894801;29;39158;-79
2023/06/20 10:06:09;;;;;;;6.47;5.85;;;28.90;99.90;;;;;;4885428;29;37294;-81
2023/06/20 10:08:36;;;;;;;9.02;5.68;;;28.80;99.90;;;;;;4902374;29;37116;-80
2023/06/20 10:11:02;;;;;;;5.93;5.32;;;29.10;1.00;;;;;;4888977;29;38836;-81
2023/06/20 10:13:29;;;;;;;5.80;5.10;;;29.40;99.90;;;;;;4902986;29;37250;-89
2023/06/20 10:15:59;;;;;;;4.45;4.05;;;29.40;51.00;;;;;;4892891;29;36989;-84
2023/06/20 10:18:29;;;;;;;5.35;4.40;;;29.20;1.00;;;;;;4886450;29;36268;-81
2023/06/20 10:20:55;;;;;;;5.28;4.75;;;29.30;99.90;;;;;;4888740;29;37568;-81
2023/06/20 10:23:30;;;;;;;5.70;4.70;;;29.20;1.00;;;;;;4890494;29;37899;-85
2023/06/20 10:25:58;;;;;;;5.05;4.00;;;29.10;99.90;;;;;;4893740;29;37306;-81
2023/06/20 10:28:25;;;;;;;6.57;4.50;;;29.60;1.00;;;;;;4889303;29;36074;-83
2023/06/20 10:30:58;;;;;;;4.25;3.50;;;29.80;1.00;;;;;;4890529;29;39253;-86
2023/06/20 10:33:30;;;;;;;5.72;4.13;;;29.70;1.00;;;;;;4892164;29;39006;-84
2023/06/20 10:36:07;;;;;;;4.28;3.88;;;29.70;1.00;;;;;;4904630;29;37807;-83
2023/06/20 10:38:37;;;;;;;4.55;3.67;;;29.70;1.00;;;;;;4888196;29;47170;-85
2023/06/20 10:41:14;;;;;;;4.28;3.17;;;29.60;1.00;;;;;;4892465;29;37818;-84
2023/06/20 10:43:54;;;;;;;5.97;3.67;;;29.60;1.00;;;;;;4901810;29;38626;-84
2023/06/20 10:46:27;;;;;;;3.97;3.05;;;29.70;1.00;;;;;;4889010;29;37361;-81
2023/06/20 10:48:54;;;;;;;3.63;2.67;;;29.90;1.00;;;;;;4894056;29;36290;-84
2023/06/20 10:51:20;;;;;;;3.88;2.90;;;29.60;1.00;;;;;;4893029;29;37424;-83
2023/06/20 10:53:46;;;;;;;4.53;2.88;;;29.50;1.00;;;;;;4887313;29;38582;-86
2023/06/20 10:56:25;;;;;;;4.32;2.90;;;29.40;1.00;;;;;;4899605;28;37988;-84
2023/06/20 10:58:51;;;;;;;3.30;2.90;;;29.40;1.00;;;;;;4903223;29;37364;-84
2023/06/20 11:01:18;;;;;;;4.30;3.25;;;29.30;99.90;;;;;;4894792;29;38022;-84
2023/06/20 11:03:46;;;;;;;2.88;2.67;;;29.10;1.00;;;;;;4897588;29;38990;-83
2023/06/20 11:06:18;;;;;;;8.05;3.28;;;29.00;1.00;;;;;;4890833;29;36938;-79
2023/06/20 11:08:47;;;;;;;;;;;28.80;1.00;;;;;;4910675;29;37302;-84
2023/06/20 11:11:13;;;;;;;7.32;2.88;;;28.80;1.00;;;;;;4906775;29;37965;-77
2023/06/20 11:13:45;;;;;;;4.22;2.63;;;28.70;1.00;;;;;;4895662;29;37334;-84
2023/06/20 11:16:18;;;;;;;4.75;2.80;;;28.70;1.00;;;;;;4901757;29;36983;-80
2023/06/20 11:18:45;;;;;;;4.40;3.05;;;28.80;1.00;;;;;;4907939;29;35971;-81
2023/06/20 11:21:14;;;;;;;4.57;3.00;;;28.60;1.00;;;;;;4891127;29;37753;-80
2023/06/20 11:23:41;;;;;;;3.05;2.75;;;28.60;1.00;;;;;;4893361;29;37467;-79
2023/06/20 11:26:07;;;;;;;4.28;2.90;;;28.50;1.00;;;;;;4914612;29;38211;-80
2023/06/20 11:28:33;;;;;;;3.33;2.78;;;28.80;99.90;;;;;;4895578;29;36139;-79
2023/06/20 11:31:09;;;;;;;7.95;2.70;;;28.60;1.00;;;;;;4892435;29;39259;-81
2023/06/20 11:33:35;;;;;;;3.35;2.50;;;28.40;1.00;;;;;;4892654;29;47737;-86
2023/06/20 11:36:01;;;;;;;5.07;2.80;;;28.40;1.00;;;;;;4905081;29;38744;-84
2023/06/20 11:38:30;;;;;;;3.15;2.70;;;28.50;1.00;;;;;;4894120;29;36338;-83
2023/06/20 11:41:06;;;;;;;4.93;2.47;;;28.70;1.00;;;;;;4911467;29;39061;-84
2023/06/20 11:43:43;;;;;;;2.72;2.53;;;29.10;1.00;;;;;;4909870;29;47459;-84
2023/06/20 11:46:11;;;;;;;5.35;2.60;;;29.00;1.00;;;;;;4884325;29;37257;-80
2023/06/20 11:48:48;;;;;;;3.10;2.50;;;29.40;1.00;;;;;;4886806;29;36085;-85
2023/06/20 11:51:14;;;;;;;4.20;2.50;;;29.20;1.00;;;;;;4893833;29;38000;-86
2023/06/20 11:53:41;;;;;;;4.03;2.60;;;29.20;1.00;;;;;;4895793;29;37281;-85
2023/06/20 11:56:11;;;;;;;3.63;2.65;;;28.80;1.00;;;;;;4906546;29;37937;-86
2023/06/20 11:58:42;;;;;;;4.43;1.92;;;28.60;1.00;;;;;;4898562;29;36142;-89
2023/06/20 12:01:14;;;;;;;4.82;2.17;;;28.70;1.00;;;;;;4916589;29;37761;-91
2023/06/20 12:03:42;;;;;;;3.78;2.40;;;28.90;1.00;;;;;;4899322;29;38387;-88
2023/06/20 12:06:26;;;;;;;3.88;2.78;;;29.40;1.00;;;;;;4895462;29;37329;-85
2023/06/20 12:09:16;;;;;;;3.38;2.40;;;29.70;1.00;;;;;;4891892;29;36955;-83
2023/06/20 12:11:53;;;;;;;7.22;2.67;;;29.80;1.00;;;;;;4902264;29;48597;-90
2023/06/20 12:14:23;;;;;;;2.53;2.33;;;29.70;1.00;;;;;;4916075;29;38134;-83
2023/06/20 12:16:52;;;;;;;2.40;2.20;;;29.50;1.00;;;;;;4897863;29;37121;-84
2023/06/20 12:19:19;;;;;;;9.13;2.83;;;29.30;1.00;;;;;;4895869;29;37196;-86
2023/06/20 12:21:46;;;;;;;4.78;2.67;;;29.00;1.00;;;;;;4897762;29;38183;-86
2023/06/20 12:24:12;;;;;;;4.10;2.78;;;29.10;1.00;;;;;;4899474;29;37892;-84
2023/06/20 12:26:42;;;;;;;3.50;2.28;;;29.10;1.00;;;;;;4901682;29;37987;-87
2023/06/20 12:29:14;;;;;;;2.83;2.33;;;29.10;1.00;;;;;;4897591;29;37409;-87
2023/06/20 12:31:40;;;;;;;5.38;2.42;;;29.20;1.00;;;;;;4897938;29;37831;-89
2023/06/20 12:34:06;;;;;;;2.85;2.58;;;29.20;1.00;;;;;;4898660;29;37429;-87
2023/06/20 12:36:33;;;;;;;3.78;2.50;;;29.10;1.00;;;;;;4901977;29;36907;-89
2023/06/20 12:39:00;;;;;;;7.90;2.20;;;29.40;1.00;;;;;;4890898;29;36298;-88
2023/06/20 12:41:36;;;;;;;2.80;2.58;;;29.60;1.00;;;;;;4920080;29;37607;-83
2023/06/20 12:44:10;;;;;;;4.15;2.42;;;29.40;99.90;;;;;;4905902;29;37274;-85
2023/06/20 12:46:37;;;;;;;2.97;2.50;;;29.60;99.90;;;;;;4896740;29;37081;-89
2023/06/20 12:49:03;;;;;;;3.38;2.67;;;29.40;99.90;;;;;;4899458;29;37386;-85
2023/06/20 12:51:29;;;;;;;3.13;2.38;;;29.20;99.90;;;;;;4900199;29;39219;-89
2023/06/20 12:53:55;;;;;;;2.42;2.22;;;29.10;99.90;;;;;;4900862;29;37371;-87
2023/06/20 12:56:22;;;;;;;4.00;2.30;;;29.10;99.90;;;;;;4898203;29;37749;-89
2023/06/20 12:58:48;;;;;;;3.03;2.58;;;29.20;1.00;;;;;;4901717;29;36010;-86
2023/06/20 13:01:14;;;;;;;2.60;2.40;;;29.30;1.00;;;;;;4902225;29;37724;-88
2023/06/20 13:03:42;;;;;;;2.78;2.58;;;29.50;1.00;;;;;;4908419;29;38242;-88
2023/06/20 13:06:18;;;;;;;3.53;2.35;;;29.40;1.00;;;;;;4901307;29;37157;-89
2023/06/20 13:08:44;;;;;;;4.63;2.53;;;29.60;1.00;;;;;;4902627;29;36388;-90
2023/06/20 13:11:10;;;;;;;2.90;2.60;;;29.50;1.00;;;;;;4913105;28;38973;-88
2023/06/20 13:13:37;;;;;;;2.88;2.38;;;29.70;1.00;;;;;;4901830;29;37345;-89
2023/06/20 13:16:04;;;;;;;2.67;2.47;;;29.90;1.00;;;;;;4905117;29;37020;-88
2023/06/20 13:18:30;;;;;;;2.67;2.47;;;30.10;1.00;;;;;;4901390;29;37526;-89
2023/06/20 13:20:56;;;;;;;2.75;2.45;;;29.80;1.00;;;;;;4905855;29;37757;-89
2023/06/20 13:23:22;;;;;;;2.75;2.50;;;29.50;1.00;;;;;;4904002;29;37599;-89
2023/06/20 13:25:49;;;;;;;3.17;2.50;;;29.40;1.00;;;;;;4919260;29;38258;-92
2023/06/20 13:28:15;;;;;;;4.50;2.67;;;29.20;1.00;;;;;;4903383;29;36457;-88
2023/06/20 13:30:42;;;;;;;4.07;2.75;;;28.90;1.00;;;;;;4904584;29;38062;-89
2023/06/20 13:33:08;;;;;;;3.42;2.40;;;28.90;1.00;;;;;;4903592;29;37435;-88
2023/06/20 13:35:34;;;;;;;5.05;3.00;;;28.90;1.00;;;;;;4907045;29;36944;-90
2023/06/20 13:38:04;;;;;;;3.67;2.67;;;28.60;1.00;;;;;;4902283;29;36096;-83
2023/06/20 13:40:32;;;;;;;4.55;2.70;;;28.70;1.00;;;;;;4894067;29;48847;-89
2023/06/20 13:42:59;;;;;;;3.00;2.50;;;28.80;99.90;;;;;;4914730;29;37171;-89
2023/06/20 13:45:26;;;;;;;2.78;2.58;;;28.70;1.00;;;;;;4909870;29;37028;-90
2023/06/20 13:47:52;;;;;;;4.75;2.50;;;28.90;99.90;;;;;;4906658;29;37215;-89
2023/06/20 13:50:20;;;;;;;3.30;2.67;;;29.10;1.00;;;;;;4912086;29;37478;-88
2023/06/20 13:52:47;;;;;;;4.15;2.67;;;29.20;1.00;;;;;;4899081;29;37100;-86
2023/06/20 13:55:19;;;;;;;2.78;2.53;;;29.40;1.00;;;;;;4915146;29;37947;-86
2023/06/20 13:57:46;;;;;;;6.72;2.65;;;29.40;1.00;;;;;;4906052;29;36125;-87
2023/06/20 14:00:13;;;;;;;2.70;2.50;;;29.40;1.00;;;;;;4893511;29;38925;-86